createdAt,value
2018-06-09T00:00:46.268Z,1008.25
2018-06-09T00:01:46.253Z,1008.22
2018-06-09T00:02:46.488Z,1008.25
2018-06-09T00:03:46.204Z,1008.19
2018-06-09T00:04:46.252Z,1008.20
2018-06-09T00:05:46.145Z,1008.19
2018-06-09T00:06:46.184Z,1008.22
2018-06-09T00:07:46.112Z,1008.20
2018-06-09T00:08:46.076Z,1008.21
2018-06-09T00:09:46.200Z,1008.21
2018-06-09T00:10:46.027Z,1008.24
2018-06-09T00:11:46.036Z,1008.25
2018-06-09T00:12:46.046Z,1008.23
2018-06-09T00:13:46.026Z,1008.22
2018-06-09T00:14:46.016Z,1008.24
2018-06-09T00:15:46.023Z,1008.20
2018-06-09T00:16:45.980Z,1008.20
2018-06-09T00:17:45.941Z,1008.20
2018-06-09T00:18:45.930Z,1008.20
2018-06-09T00:19:45.900Z,1008.20
2018-06-09T00:20:45.883Z,1008.18
2018-06-09T00:21:45.876Z,1008.20
2018-06-09T00:22:45.796Z,1008.20
2018-06-09T00:23:45.810Z,1008.21
2018-06-09T00:24:45.798Z,1008.20
2018-06-09T00:25:45.748Z,1008.22
2018-06-09T00:26:45.730Z,1008.23
2018-06-09T00:27:45.698Z,1008.22
2018-06-09T00:28:45.699Z,1008.27
2018-06-09T00:29:45.678Z,1008.24
2018-06-09T00:30:45.884Z,1008.21
2018-06-09T00:31:45.603Z,1008.22
2018-06-09T00:32:45.589Z,1008.21
2018-06-09T00:33:45.791Z,1008.18
2018-06-09T00:34:45.537Z,1008.20
2018-06-09T00:35:45.520Z,1008.16
2018-06-09T00:36:45.533Z,1008.18
2018-06-09T00:37:45.471Z,1008.16
2018-06-09T00:38:45.442Z,1008.13
2018-06-09T00:39:45.432Z,1008.14
2018-06-09T00:40:45.383Z,1008.12
2018-06-09T00:41:45.313Z,1008.14
2018-06-09T00:42:45.286Z,1008.13
2018-06-09T00:43:45.273Z,1008.11
2018-06-09T00:44:45.243Z,1008.11
2018-06-09T00:45:45.211Z,1008.16
2018-06-09T00:46:45.203Z,1008.08
2018-06-09T00:47:45.169Z,1008.09
2018-06-09T00:48:45.146Z,1008.08
2018-06-09T00:49:45.127Z,1008.06
2018-06-09T00:50:45.097Z,1008.06
2018-06-09T00:51:45.140Z,1008.10
2018-06-09T00:52:45.108Z,1008.09
2018-06-09T00:53:45.040Z,1008.10
2018-06-09T00:54:45.065Z,1008.12
2018-06-09T00:55:45.063Z,1008.10
2018-06-09T00:56:45.009Z,1008.08
2018-06-09T00:57:45.015Z,1008.09
2018-06-09T00:58:44.943Z,1008.13
2018-06-09T00:59:44.962Z,1008.15
2018-06-09T01:00:44.955Z,1008.15
2018-06-09T01:01:44.908Z,1008.17
2018-06-09T01:02:44.850Z,1008.16
2018-06-09T01:03:44.858Z,1008.16
2018-06-09T01:04:44.839Z,1008.13
2018-06-09T01:05:44.752Z,1008.13
2018-06-09T01:06:44.780Z,1008.13
2018-06-09T01:07:44.770Z,1008.12
2018-06-09T01:08:44.757Z,1008.10
2018-06-09T01:09:44.738Z,1008.11
2018-06-09T01:10:44.684Z,1008.11
2018-06-09T01:11:44.673Z,1008.09
2018-06-09T01:12:44.630Z,1008.11
2018-06-09T01:13:44.621Z,1008.13
2018-06-09T01:14:44.610Z,1008.11
2018-06-09T01:15:44.615Z,1008.09
2018-06-09T01:16:44.546Z,1008.10
2018-06-09T01:17:44.465Z,1008.07
2018-06-09T01:18:44.547Z,1008.11
2018-06-09T01:19:44.481Z,1008.05
2018-06-09T01:20:44.384Z,1008.08
2018-06-09T01:21:44.453Z,1008.04
2018-06-09T01:22:44.424Z,1008.02
2018-06-09T01:23:44.331Z,1008.04
2018-06-09T01:24:44.356Z,1008.07
2018-06-09T01:25:44.271Z,1008.06
2018-06-09T01:26:44.284Z,1008.07
2018-06-09T01:27:44.261Z,1008.11
2018-06-09T01:28:44.199Z,1008.12
2018-06-09T01:29:44.179Z,1008.09
2018-06-09T01:30:44.151Z,1008.13
2018-06-09T01:31:44.123Z,1008.10
2018-06-09T01:32:44.112Z,1008.09
2018-06-09T01:33:44.089Z,1008.10
2018-06-09T01:34:44.057Z,1008.06
2018-06-09T01:35:44.032Z,1008.03
2018-06-09T01:36:44.027Z,1008.04
2018-06-09T01:37:44.013Z,1008.05
2018-06-09T01:38:43.964Z,1008.06
2018-06-09T01:39:43.932Z,1008.06
2018-06-09T01:40:43.932Z,1008.03
2018-06-09T01:41:43.892Z,1008.01
2018-06-09T01:42:43.869Z,1007.98
2018-06-09T01:43:43.853Z,1007.98
2018-06-09T01:44:43.822Z,1007.99
2018-06-09T01:45:43.789Z,1007.94
2018-06-09T01:46:43.774Z,1007.97
2018-06-09T01:47:43.743Z,1007.97
2018-06-09T01:48:43.737Z,1008.00
2018-06-09T01:49:43.717Z,1008.00
2018-06-09T01:50:43.671Z,1008.02
2018-06-09T01:51:43.655Z,1008.00
2018-06-09T01:52:43.623Z,1008.03
2018-06-09T01:53:43.615Z,1008.01
2018-06-09T01:54:43.580Z,1008.00
2018-06-09T01:55:43.554Z,1007.98
2018-06-09T01:56:43.536Z,1008.01
2018-06-09T01:57:43.501Z,1007.97
2018-06-09T01:58:43.485Z,1008.00
2018-06-09T01:59:43.455Z,1008.00
2018-06-09T02:00:43.489Z,1007.98
2018-06-09T02:01:43.409Z,1007.97
2018-06-09T02:02:43.385Z,1007.94
2018-06-09T02:03:43.358Z,1007.93
2018-06-09T02:04:43.359Z,1007.96
2018-06-09T02:05:43.312Z,1007.93
2018-06-09T02:06:43.297Z,1007.94
2018-06-09T02:07:43.261Z,1007.97
2018-06-09T02:08:43.243Z,1007.95
2018-06-09T02:09:43.215Z,1007.99
2018-06-09T02:10:43.210Z,1007.94
2018-06-09T02:11:43.163Z,1007.93
2018-06-09T02:12:43.146Z,1007.95
2018-06-09T02:13:43.119Z,1007.98
2018-06-09T02:14:43.092Z,1007.97
2018-06-09T02:15:43.072Z,1008.01
2018-06-09T02:16:43.064Z,1007.97
2018-06-09T02:17:43.046Z,1008.02
2018-06-09T02:18:42.996Z,1007.97
2018-06-09T02:19:42.981Z,1007.96
2018-06-09T02:20:42.946Z,1007.92
2018-06-09T02:21:42.932Z,1007.94
2018-06-09T02:22:42.905Z,1007.97
2018-06-09T02:23:42.883Z,1007.95
2018-06-09T02:24:42.849Z,1007.90
2018-06-09T02:25:42.837Z,1007.93
2018-06-09T02:26:42.813Z,1007.93
2018-06-09T02:27:42.782Z,1007.92
2018-06-09T02:28:42.768Z,1007.90
2018-06-09T02:29:42.760Z,1007.93
2018-06-09T02:30:42.705Z,1007.88
2018-06-09T02:31:42.678Z,1007.83
2018-06-09T02:32:42.665Z,1007.86
2018-06-09T02:33:42.644Z,1007.86
2018-06-09T02:34:42.616Z,1007.81
2018-06-09T02:35:42.602Z,1007.86
2018-06-09T02:36:42.594Z,1007.79
2018-06-09T02:37:42.533Z,1007.85
2018-06-09T02:38:42.514Z,1007.83
2018-06-09T02:39:42.484Z,1007.87
2018-06-09T02:40:42.493Z,1007.86
2018-06-09T02:41:42.443Z,1007.90
2018-06-09T02:42:42.463Z,1007.92
2018-06-09T02:43:42.382Z,1007.90
2018-06-09T02:44:42.364Z,1007.89
2018-06-09T02:45:42.348Z,1007.92
2018-06-09T02:46:42.323Z,1007.91
2018-06-09T02:47:42.296Z,1007.92
2018-06-09T02:48:42.298Z,1007.86
2018-06-09T02:49:42.253Z,1007.91
2018-06-09T02:50:42.215Z,1007.92
2018-06-09T02:51:42.209Z,1007.87
2018-06-09T02:52:42.179Z,1007.84
2018-06-09T02:53:42.138Z,1007.86
2018-06-09T02:54:42.139Z,1007.82
2018-06-09T02:55:42.099Z,1007.79
2018-06-09T02:56:42.099Z,1007.78
2018-06-09T02:57:42.050Z,1007.78
2018-06-09T02:58:42.031Z,1007.82
2018-06-09T02:59:41.999Z,1007.84
2018-06-09T03:00:41.973Z,1007.80
2018-06-09T03:01:41.943Z,1007.82
2018-06-09T03:02:41.928Z,1007.79
2018-06-09T03:03:41.900Z,1007.79
2018-06-09T03:04:41.870Z,1007.79
2018-06-09T03:05:41.873Z,1007.82
2018-06-09T03:06:41.823Z,1007.81
2018-06-09T03:07:41.803Z,1007.76
2018-06-09T03:08:41.784Z,1007.80
2018-06-09T03:09:41.757Z,1007.78
2018-06-09T03:10:41.728Z,1007.82
2018-06-09T03:11:41.709Z,1007.81
2018-06-09T03:12:41.690Z,1007.83
2018-06-09T03:13:41.648Z,1007.80
2018-06-09T03:14:41.629Z,1007.83
2018-06-09T03:15:41.606Z,1007.82
2018-06-09T03:16:41.576Z,1007.85
2018-06-09T03:17:41.563Z,1007.85
2018-06-09T03:18:41.541Z,1007.86
2018-06-09T03:19:41.535Z,1007.87
2018-06-09T03:20:41.497Z,1007.86
2018-06-09T03:21:41.479Z,1007.85
2018-06-09T03:22:41.452Z,1007.87
2018-06-09T03:23:41.414Z,1007.90
2018-06-09T03:24:41.391Z,1007.88
2018-06-09T03:25:41.384Z,1007.90
2018-06-09T03:26:41.338Z,1007.88
2018-06-09T03:27:41.321Z,1007.94
2018-06-09T03:28:41.301Z,1007.92
2018-06-09T03:29:41.265Z,1007.93
2018-06-09T03:30:41.254Z,1007.89
2018-06-09T03:31:41.233Z,1007.89
2018-06-09T03:32:41.209Z,1007.94
2018-06-09T03:33:41.162Z,1007.89
2018-06-09T03:34:41.138Z,1007.87
2018-06-09T03:35:41.116Z,1007.86
2018-06-09T03:36:41.098Z,1007.86
2018-06-09T03:37:41.083Z,1007.87
2018-06-09T03:38:41.054Z,1007.86
2018-06-09T03:39:41.017Z,1007.88
2018-06-09T03:40:41.064Z,1007.87
2018-06-09T03:41:41.026Z,1007.86
2018-06-09T03:42:40.947Z,1007.90
2018-06-09T03:43:40.992Z,1007.88
2018-06-09T03:44:40.948Z,1007.88
2018-06-09T03:45:40.930Z,1007.86
2018-06-09T03:46:40.899Z,1007.83
2018-06-09T03:47:41.639Z,1007.82
2018-06-09T03:48:40.862Z,1007.86
2018-06-09T03:49:40.861Z,1007.88
2018-06-09T03:50:40.816Z,1007.84
2018-06-09T03:51:40.725Z,1007.85
2018-06-09T03:52:40.711Z,1007.90
2018-06-09T03:53:40.687Z,1007.99
2018-06-09T03:54:40.652Z,1007.98
2018-06-09T03:55:40.634Z,1008.02
2018-06-09T03:56:40.620Z,1007.98
2018-06-09T03:57:40.575Z,1008.03
2018-06-09T03:58:40.562Z,1008.01
2018-06-09T03:59:40.558Z,1007.98
2018-06-09T04:00:40.501Z,1008.00
2018-06-09T04:01:40.483Z,1007.99
2018-06-09T04:02:40.468Z,1008.03
2018-06-09T04:03:40.448Z,1008.03
2018-06-09T04:04:40.412Z,1008.02
2018-06-09T04:05:40.401Z,1008.05
2018-06-09T04:06:40.364Z,1008.03
2018-06-09T04:07:40.332Z,1008.03
2018-06-09T04:08:40.319Z,1008.02
2018-06-09T04:09:40.296Z,1007.99
2018-06-09T04:10:40.353Z,1008.00
2018-06-09T04:11:40.235Z,1007.97
2018-06-09T04:12:40.210Z,1007.98
2018-06-09T04:13:40.210Z,1008.03
2018-06-09T04:14:40.174Z,1008.00
2018-06-09T04:15:40.164Z,1008.06
2018-06-09T04:16:40.128Z,1008.06
2018-06-09T04:17:40.094Z,1008.05
2018-06-09T04:18:40.101Z,1008.03
2018-06-09T04:19:40.046Z,1008.08
2018-06-09T04:20:40.061Z,1008.08
2018-06-09T04:21:40.000Z,1008.06
2018-06-09T04:22:39.972Z,1008.11
2018-06-09T04:23:39.945Z,1008.11
2018-06-09T04:24:39.931Z,1008.11
2018-06-09T04:25:39.911Z,1008.10
2018-06-09T04:26:39.869Z,1008.13
2018-06-09T04:27:39.844Z,1008.05
2018-06-09T04:28:39.836Z,1008.09
2018-06-09T04:29:39.798Z,1008.13
2018-06-09T04:30:39.811Z,1008.18
2018-06-09T04:31:39.766Z,1008.17
2018-06-09T04:32:39.733Z,1008.12
2018-06-09T04:33:39.712Z,1008.13
2018-06-09T04:34:39.682Z,1008.12
2018-06-09T04:35:39.674Z,1008.12
2018-06-09T04:36:39.651Z,1008.14
2018-06-09T04:37:39.618Z,1008.15
2018-06-09T04:38:39.623Z,1008.19
2018-06-09T04:39:39.551Z,1008.16
2018-06-09T04:40:39.535Z,1008.16
2018-06-09T04:41:39.520Z,1008.14
2018-06-09T04:42:39.494Z,1008.16
2018-06-09T04:43:39.456Z,1008.12
2018-06-09T04:44:39.515Z,1008.08
2018-06-09T04:45:39.453Z,1008.11
2018-06-09T04:46:39.395Z,1008.11
2018-06-09T04:47:39.370Z,1008.10
2018-06-09T04:48:39.343Z,1008.11
2018-06-09T04:49:39.313Z,1008.09
2018-06-09T04:50:39.286Z,1008.10
2018-06-09T04:51:39.270Z,1008.10
2018-06-09T04:52:39.262Z,1008.14
2018-06-09T04:53:39.215Z,1008.15
2018-06-09T04:54:39.198Z,1008.15
2018-06-09T04:55:39.169Z,1008.14
2018-06-09T04:56:39.140Z,1008.11
2018-06-09T04:57:39.125Z,1008.17
2018-06-09T04:58:39.104Z,1008.15
2018-06-09T04:59:39.069Z,1008.16
2018-06-09T05:00:39.110Z,1008.16
2018-06-09T05:01:39.098Z,1008.14
2018-06-09T05:02:39.073Z,1008.11
2018-06-09T05:03:39.037Z,1008.13
2018-06-09T05:04:39.011Z,1008.11
2018-06-09T05:05:38.974Z,1008.12
2018-06-09T05:06:38.963Z,1008.09
2018-06-09T05:07:38.880Z,1008.08
2018-06-09T05:08:38.850Z,1008.07
2018-06-09T05:09:38.834Z,1008.06
2018-06-09T05:10:38.828Z,1008.06
2018-06-09T05:11:38.788Z,1008.06
2018-06-09T05:12:38.759Z,1008.09
2018-06-09T05:13:38.731Z,1008.10
2018-06-09T05:14:38.719Z,1008.16
2018-06-09T05:15:38.692Z,1008.15
2018-06-09T05:16:38.679Z,1008.16
2018-06-09T05:17:38.635Z,1008.18
2018-06-09T05:18:38.617Z,1008.18
2018-06-09T05:19:38.590Z,1008.15
2018-06-09T05:20:38.562Z,1008.13
2018-06-09T05:21:38.550Z,1008.12
2018-06-09T05:22:38.541Z,1008.13
2018-06-09T05:23:38.495Z,1008.15
2018-06-09T05:24:38.489Z,1008.14
2018-06-09T05:25:38.448Z,1008.13
2018-06-09T05:26:38.432Z,1008.12
2018-06-09T05:27:38.403Z,1008.11
2018-06-09T05:28:38.376Z,1008.11
2018-06-09T05:29:38.354Z,1008.11
2018-06-09T05:30:38.333Z,1008.11
2018-06-09T05:31:38.310Z,1008.12
2018-06-09T05:32:38.280Z,1008.10
2018-06-09T05:33:38.307Z,1008.10
2018-06-09T05:34:38.337Z,1008.13
2018-06-09T05:35:38.259Z,1008.13
2018-06-09T05:36:38.198Z,1008.11
2018-06-09T05:37:38.160Z,1008.11
2018-06-09T05:38:38.148Z,1008.14
2018-06-09T05:39:38.113Z,1008.15
2018-06-09T05:40:38.088Z,1008.17
2018-06-09T05:41:38.085Z,1008.14
2018-06-09T05:42:38.051Z,1008.12
2018-06-09T05:43:38.088Z,1008.10
2018-06-09T05:44:38.056Z,1008.06
2018-06-09T05:45:37.995Z,1008.09
2018-06-09T05:46:37.954Z,1008.08
2018-06-09T05:47:37.941Z,1008.07
2018-06-09T05:48:37.939Z,1008.10
2018-06-09T05:49:37.881Z,1008.07
2018-06-09T05:50:37.858Z,1008.05
2018-06-09T05:51:37.842Z,1008.09
2018-06-09T05:52:37.810Z,1008.11
2018-06-09T05:53:37.793Z,1008.10
2018-06-09T05:54:37.774Z,1008.14
2018-06-09T05:55:37.770Z,1008.12
2018-06-09T05:56:37.732Z,1008.10
2018-06-09T05:57:37.697Z,1008.11
2018-06-09T05:58:37.686Z,1008.12
2018-06-09T05:59:37.664Z,1008.12
2018-06-09T06:00:37.630Z,1008.15
2018-06-09T06:01:37.617Z,1008.14
2018-06-09T06:02:37.590Z,1008.15
2018-06-09T06:03:37.565Z,1008.10
2018-06-09T06:04:37.533Z,1008.13
2018-06-09T06:05:37.518Z,1008.14
2018-06-09T06:06:37.490Z,1008.15
2018-06-09T06:07:37.472Z,1008.18
2018-06-09T06:08:37.453Z,1008.19
2018-06-09T06:09:37.445Z,1008.21
2018-06-09T06:10:37.402Z,1008.22
2018-06-09T06:11:37.383Z,1008.23
2018-06-09T06:12:37.361Z,1008.24
2018-06-09T06:13:37.339Z,1008.23
2018-06-09T06:14:37.308Z,1008.20
2018-06-09T06:15:37.285Z,1008.22
2018-06-09T06:16:37.270Z,1008.22
2018-06-09T06:17:37.252Z,1008.21
2018-06-09T06:18:37.217Z,1008.23
2018-06-09T06:19:37.198Z,1008.22
2018-06-09T06:20:37.201Z,1008.22
2018-06-09T06:21:37.148Z,1008.18
2018-06-09T06:22:37.132Z,1008.20
2018-06-09T06:23:37.124Z,1008.24
2018-06-09T06:24:37.079Z,1008.20
2018-06-09T06:25:37.065Z,1008.17
2018-06-09T06:26:37.039Z,1008.19
2018-06-09T06:27:37.065Z,1008.24
2018-06-09T06:28:37.011Z,1008.18
2018-06-09T06:29:36.970Z,1008.23
2018-06-09T06:30:36.961Z,1008.20
2018-06-09T06:31:36.925Z,1008.22
2018-06-09T06:32:36.921Z,1008.25
2018-06-09T06:33:36.887Z,1008.24
2018-06-09T06:34:36.922Z,1008.25
2018-06-09T06:35:36.832Z,1008.26
2018-06-09T06:36:36.812Z,1008.26
2018-06-09T06:37:36.796Z,1008.31
2018-06-09T06:38:36.771Z,1008.35
2018-06-09T06:39:36.753Z,1008.35
2018-06-09T06:40:36.733Z,1008.35
2018-06-09T06:41:36.703Z,1008.37
2018-06-09T06:42:36.682Z,1008.40
2018-06-09T06:43:36.655Z,1008.37
2018-06-09T06:44:36.641Z,1008.36
2018-06-09T06:45:36.620Z,1008.37
2018-06-09T06:46:36.594Z,1008.36
2018-06-09T06:47:36.572Z,1008.41
2018-06-09T06:48:36.571Z,1008.39
2018-06-09T06:49:36.521Z,1008.38
2018-06-09T06:50:36.508Z,1008.40
2018-06-09T06:51:36.522Z,1008.42
2018-06-09T06:52:36.479Z,1008.46
2018-06-09T06:53:36.467Z,1008.43
2018-06-09T06:54:36.424Z,1008.44
2018-06-09T06:55:36.417Z,1008.45
2018-06-09T06:56:36.417Z,1008.42
2018-06-09T06:57:36.354Z,1008.44
2018-06-09T06:58:36.330Z,1008.43
2018-06-09T06:59:36.308Z,1008.46
2018-06-09T07:00:36.286Z,1008.44
2018-06-09T07:01:36.267Z,1008.47
2018-06-09T07:02:36.264Z,1008.50
2018-06-09T07:03:36.218Z,1008.50
2018-06-09T07:04:36.197Z,1008.51
2018-06-09T07:05:36.183Z,1008.51
2018-06-09T07:06:36.166Z,1008.52
2018-06-09T07:07:36.131Z,1008.49
2018-06-09T07:08:36.112Z,1008.53
2018-06-09T07:09:36.095Z,1008.53
2018-06-09T07:10:36.076Z,1008.49
2018-06-09T07:11:36.072Z,1008.52
2018-06-09T07:12:36.037Z,1008.50
2018-06-09T07:13:36.003Z,1008.48
2018-06-09T07:14:35.997Z,1008.49
2018-06-09T07:15:35.960Z,1008.48
2018-06-09T07:16:35.936Z,1008.53
2018-06-09T07:17:35.927Z,1008.51
2018-06-09T07:18:35.908Z,1008.49
2018-06-09T07:19:35.882Z,1008.50
2018-06-09T07:20:35.872Z,1008.55
2018-06-09T07:21:35.828Z,1008.55
2018-06-09T07:22:35.812Z,1008.57
2018-06-09T07:23:35.793Z,1008.57
2018-06-09T07:24:35.773Z,1008.59
2018-06-09T07:25:35.746Z,1008.62
2018-06-09T07:26:35.728Z,1008.59
2018-06-09T07:27:35.724Z,1008.59
2018-06-09T07:28:35.684Z,1008.58
2018-06-09T07:29:35.661Z,1008.56
2018-06-09T07:30:35.640Z,1008.56
2018-06-09T07:31:35.628Z,1008.56
2018-06-09T07:32:35.607Z,1008.54
2018-06-09T07:33:35.589Z,1008.57
2018-06-09T07:34:35.556Z,1008.57
2018-06-09T07:35:35.553Z,1008.57
2018-06-09T07:36:35.510Z,1008.59
2018-06-09T07:37:35.491Z,1008.57
2018-06-09T07:38:35.479Z,1008.56
2018-06-09T07:39:35.442Z,1008.57
2018-06-09T07:40:35.421Z,1008.51
2018-06-09T07:41:35.407Z,1008.55
2018-06-09T07:42:35.386Z,1008.52
2018-06-09T07:43:35.365Z,1008.53
2018-06-09T07:44:35.346Z,1008.51
2018-06-09T07:45:35.316Z,1008.50
2018-06-09T07:46:35.296Z,1008.50
2018-06-09T07:47:35.276Z,1008.48
2018-06-09T07:48:35.252Z,1008.51
2018-06-09T07:49:35.247Z,1008.55
2018-06-09T07:50:35.218Z,1008.56
2018-06-09T07:51:35.197Z,1008.52
2018-06-09T07:52:35.199Z,1008.56
2018-06-09T07:53:35.181Z,1008.51
2018-06-09T07:54:35.128Z,1008.53
2018-06-09T07:55:35.113Z,1008.50
2018-06-09T07:56:35.089Z,1008.49
2018-06-09T07:57:35.099Z,1008.51
2018-06-09T07:58:35.045Z,1008.50
2018-06-09T07:59:35.039Z,1008.47
2018-06-09T08:00:35.011Z,1008.58
2018-06-09T08:01:34.993Z,1008.56
2018-06-09T08:02:34.965Z,1008.56
2018-06-09T08:03:34.949Z,1008.55
2018-06-09T08:04:34.929Z,1008.61
2018-06-09T08:05:34.897Z,1008.58
2018-06-09T08:06:34.884Z,1008.54
2018-06-09T08:07:34.859Z,1008.51
2018-06-09T08:08:34.860Z,1008.51
2018-06-09T08:09:34.830Z,1008.56
2018-06-09T08:10:34.796Z,1008.55
2018-06-09T08:11:34.789Z,1008.51
2018-06-09T08:12:34.754Z,1008.58
2018-06-09T08:13:34.747Z,1008.56
2018-06-09T08:14:34.717Z,1008.54
2018-06-09T08:15:34.699Z,1008.54
2018-06-09T08:16:34.702Z,1008.56
2018-06-09T08:17:34.666Z,1008.55
2018-06-09T08:18:34.638Z,1008.57
2018-06-09T08:19:34.608Z,1008.62
2018-06-09T08:20:34.588Z,1008.56
2018-06-09T08:21:34.674Z,1008.59
2018-06-09T08:22:34.694Z,1008.60
2018-06-09T08:23:34.621Z,1008.61
2018-06-09T08:24:34.626Z,1008.59
2018-06-09T08:25:34.598Z,1008.61
2018-06-09T08:26:34.580Z,1008.62
2018-06-09T08:27:34.610Z,1008.61
2018-06-09T08:28:34.535Z,1008.58
2018-06-09T08:29:34.406Z,1008.62
2018-06-09T08:30:34.379Z,1008.59
2018-06-09T08:31:34.356Z,1008.58
2018-06-09T08:32:34.330Z,1008.60
2018-06-09T08:33:34.342Z,1008.59
2018-06-09T08:34:34.313Z,1008.58
2018-06-09T08:35:34.307Z,1008.60
2018-06-09T08:36:34.315Z,1008.60
2018-06-09T08:37:34.231Z,1008.60
2018-06-09T08:38:34.215Z,1008.58
2018-06-09T08:39:34.201Z,1008.58
2018-06-09T08:40:34.162Z,1008.56
2018-06-09T08:41:34.157Z,1008.56
2018-06-09T08:42:34.144Z,1008.55
2018-06-09T08:43:34.104Z,1008.53
2018-06-09T08:44:34.088Z,1008.53
2018-06-09T08:45:34.078Z,1008.55
2018-06-09T08:46:34.062Z,1008.57
2018-06-09T08:47:34.018Z,1008.60
2018-06-09T08:48:34.005Z,1008.61
2018-06-09T08:49:33.985Z,1008.63
2018-06-09T08:50:33.957Z,1008.62
2018-06-09T08:51:33.943Z,1008.59
2018-06-09T08:52:33.929Z,1008.62
2018-06-09T08:53:33.916Z,1008.59
2018-06-09T08:54:33.938Z,1008.59
2018-06-09T08:55:33.862Z,1008.59
2018-06-09T08:56:33.845Z,1008.60
2018-06-09T08:57:33.842Z,1008.57
2018-06-09T08:58:33.788Z,1008.61
2018-06-09T08:59:33.775Z,1008.54
2018-06-09T09:00:33.766Z,1008.54
2018-06-09T09:01:33.725Z,1008.58
2018-06-09T09:02:33.714Z,1008.52
2018-06-09T09:03:33.694Z,1008.50
2018-06-09T09:04:33.675Z,1008.50
2018-06-09T09:05:33.654Z,1008.50
2018-06-09T09:06:33.636Z,1008.46
2018-06-09T09:07:33.617Z,1008.46
2018-06-09T09:08:33.604Z,1008.51
2018-06-09T09:09:33.569Z,1008.48
2018-06-09T09:10:33.550Z,1008.52
2018-06-09T09:11:33.576Z,1008.49
2018-06-09T09:12:33.529Z,1008.49
2018-06-09T09:13:33.491Z,1008.46
2018-06-09T09:14:33.474Z,1008.50
2018-06-09T09:15:33.468Z,1008.50
2018-06-09T09:16:33.496Z,1008.50
2018-06-09T09:17:33.430Z,1008.52
2018-06-09T09:18:33.403Z,1008.53
2018-06-09T09:19:33.374Z,1008.55
2018-06-09T09:20:33.345Z,1008.51
2018-06-09T09:21:33.333Z,1008.52
2018-06-09T09:22:33.333Z,1008.53
2018-06-09T09:23:33.284Z,1008.51
2018-06-09T09:24:33.263Z,1008.48
2018-06-09T09:25:33.244Z,1008.45
2018-06-09T09:26:33.236Z,1008.47
2018-06-09T09:27:33.211Z,1008.44
2018-06-09T09:28:33.191Z,1008.47
2018-06-09T09:29:33.160Z,1008.47
2018-06-09T09:30:33.137Z,1008.50
2018-06-09T09:31:33.122Z,1008.48
2018-06-09T09:32:33.110Z,1008.51
2018-06-09T09:33:33.078Z,1008.49
2018-06-09T09:34:33.059Z,1008.49
2018-06-09T09:35:33.040Z,1008.49
2018-06-09T09:36:33.023Z,1008.48
2018-06-09T09:37:33.008Z,1008.49
2018-06-09T09:38:33.029Z,1008.52
2018-06-09T09:39:32.975Z,1008.51
2018-06-09T09:40:32.973Z,1008.51
2018-06-09T09:41:32.918Z,1008.48
2018-06-09T09:42:32.909Z,1008.52
2018-06-09T09:43:32.873Z,1008.53
2018-06-09T09:44:32.879Z,1008.48
2018-06-09T09:45:32.837Z,1008.54
2018-06-09T09:46:32.825Z,1008.52
2018-06-09T09:47:32.794Z,1008.50
2018-06-09T09:48:32.781Z,1008.50
2018-06-09T09:49:32.762Z,1008.55
2018-06-09T09:50:32.747Z,1008.51
2018-06-09T09:51:32.740Z,1008.47
2018-06-09T09:52:32.706Z,1008.49
2018-06-09T09:53:32.676Z,1008.46
2018-06-09T09:54:32.659Z,1008.44
2018-06-09T09:55:32.654Z,1008.43
2018-06-09T09:56:32.624Z,1008.46
2018-06-09T09:57:32.611Z,1008.48
2018-06-09T09:58:32.587Z,1008.47
2018-06-09T09:59:32.573Z,1008.49
2018-06-09T10:00:32.536Z,1008.45
2018-06-09T10:01:32.520Z,1008.41
2018-06-09T10:02:32.497Z,1008.41
2018-06-09T10:03:32.488Z,1008.42
2018-06-09T10:04:32.460Z,1008.37
2018-06-09T10:05:32.442Z,1008.37
2018-06-09T10:06:32.429Z,1008.39
2018-06-09T10:07:32.396Z,1008.37
2018-06-09T10:08:32.382Z,1008.39
2018-06-09T10:09:32.359Z,1008.42
2018-06-09T10:10:32.344Z,1008.39
2018-06-09T10:11:32.327Z,1008.41
2018-06-09T10:12:32.300Z,1008.37
2018-06-09T10:13:32.289Z,1008.37
2018-06-09T10:14:32.263Z,1008.39
2018-06-09T10:15:32.231Z,1008.38
2018-06-09T10:16:32.231Z,1008.41
2018-06-09T10:17:32.198Z,1008.39
2018-06-09T10:18:32.182Z,1008.40
2018-06-09T10:19:32.187Z,1008.38
2018-06-09T10:20:32.168Z,1008.40
2018-06-09T10:21:32.124Z,1008.35
2018-06-09T10:22:32.109Z,1008.39
2018-06-09T10:23:32.092Z,1008.38
2018-06-09T10:24:32.178Z,1008.37
2018-06-09T10:25:32.119Z,1008.38
2018-06-09T10:26:32.019Z,1008.39
2018-06-09T10:27:31.998Z,1008.40
2018-06-09T10:28:31.988Z,1008.40
2018-06-09T10:29:31.964Z,1008.42
2018-06-09T10:30:31.943Z,1008.34
2018-06-09T10:31:31.993Z,1008.40
2018-06-09T10:32:32.053Z,1008.34
2018-06-09T10:33:31.995Z,1008.38
2018-06-09T10:34:31.869Z,1008.37
2018-06-09T10:35:31.847Z,1008.39
2018-06-09T10:36:31.823Z,1008.37
2018-06-09T10:37:31.803Z,1008.34
2018-06-09T10:38:31.781Z,1008.32
2018-06-09T10:39:31.777Z,1008.36
2018-06-09T10:40:31.745Z,1008.31
2018-06-09T10:41:31.728Z,1008.35
2018-06-09T10:42:31.711Z,1008.36
2018-06-09T10:43:31.696Z,1008.34
2018-06-09T10:44:31.668Z,1008.35
2018-06-09T10:45:31.648Z,1008.33
2018-06-09T10:46:31.633Z,1008.32
2018-06-09T10:47:31.629Z,1008.33
2018-06-09T10:48:31.597Z,1008.35
2018-06-09T10:49:31.581Z,1008.34
2018-06-09T10:50:31.558Z,1008.32
2018-06-09T10:51:31.530Z,1008.29
2018-06-09T10:52:31.524Z,1008.28
2018-06-09T10:53:31.498Z,1008.31
2018-06-09T10:54:31.490Z,1008.28
2018-06-09T10:55:31.468Z,1008.29
2018-06-09T10:56:31.442Z,1008.25
2018-06-09T10:57:31.456Z,1008.23
2018-06-09T10:58:31.421Z,1008.26
2018-06-09T10:59:31.386Z,1008.26
2018-06-09T11:00:31.382Z,1008.25
2018-06-09T11:01:31.370Z,1008.26
2018-06-09T11:02:31.338Z,1008.18
2018-06-09T11:03:31.315Z,1008.17
2018-06-09T11:04:31.316Z,1008.20
2018-06-09T11:05:31.278Z,1008.16
2018-06-09T11:06:31.312Z,1008.20
2018-06-09T11:07:31.246Z,1008.18
2018-06-09T11:08:31.336Z,1008.19
2018-06-09T11:09:31.213Z,1008.13
2018-06-09T11:10:31.338Z,1008.18
2018-06-09T11:11:31.169Z,1008.15
2018-06-09T11:12:31.186Z,1008.15
2018-06-09T11:13:31.154Z,1008.12
2018-06-09T11:14:31.123Z,1008.12
2018-06-09T11:15:31.107Z,1008.11
2018-06-09T11:16:31.081Z,1008.08
2018-06-09T11:17:31.097Z,1008.07
2018-06-09T11:18:31.068Z,1008.04
2018-06-09T11:19:31.028Z,1008.07
2018-06-09T11:20:31.006Z,1008.07
2018-06-09T11:21:30.993Z,1008.02
2018-06-09T11:22:30.983Z,1008.01
2018-06-09T11:23:30.956Z,1008.02
2018-06-09T11:24:30.979Z,1007.99
2018-06-09T11:25:30.920Z,1007.97
2018-06-09T11:26:30.920Z,1008.00
2018-06-09T11:27:30.890Z,1008.00
2018-06-09T11:28:30.866Z,1008.00
2018-06-09T11:29:30.842Z,1008.02
2018-06-09T11:30:30.966Z,1007.98
2018-06-09T11:31:30.811Z,1008.01
2018-06-09T11:32:30.793Z,1007.99
2018-06-09T11:33:30.784Z,1007.96
2018-06-09T11:34:30.784Z,1007.98
2018-06-09T11:35:30.746Z,1007.98
2018-06-09T11:36:30.727Z,1007.92
2018-06-09T11:37:30.713Z,1007.89
2018-06-09T11:38:30.772Z,1007.88
2018-06-09T11:39:30.676Z,1007.87
2018-06-09T11:40:30.718Z,1007.88
2018-06-09T11:41:30.637Z,1007.93
2018-06-09T11:42:30.636Z,1007.93
2018-06-09T11:43:30.607Z,1007.90
2018-06-09T11:44:30.616Z,1007.92
2018-06-09T11:45:30.583Z,1007.95
2018-06-09T11:46:30.567Z,1007.95
2018-06-09T11:47:30.560Z,1007.95
2018-06-09T11:48:30.551Z,1007.89
2018-06-09T11:49:30.544Z,1007.90
2018-06-09T11:50:30.560Z,1007.89
2018-06-09T11:51:30.554Z,1007.86
2018-06-09T11:52:30.498Z,1007.87
2018-06-09T11:53:30.473Z,1007.89
2018-06-09T11:54:30.437Z,1007.83
2018-06-09T11:55:30.427Z,1007.83
2018-06-09T11:56:30.438Z,1007.76
2018-06-09T11:57:30.394Z,1007.76
2018-06-09T11:58:30.407Z,1007.74
2018-06-09T11:59:30.371Z,1007.78
2018-06-09T12:00:30.374Z,1007.75
2018-06-09T12:01:30.340Z,1007.70
2018-06-09T12:02:30.318Z,1007.74
2018-06-09T12:03:30.310Z,1007.75
2018-06-09T12:04:30.322Z,1007.74
2018-06-09T12:05:30.335Z,1007.76